createdAt,value
2018-09-20T00:02:09.442Z,93.20
2018-09-20T00:04:41.865Z,93.50
2018-09-20T00:07:14.310Z,93.50
2018-09-20T00:09:46.721Z,93.60
2018-09-20T00:12:19.125Z,93.70
2018-09-20T00:14:51.536Z,93.70
2018-09-20T00:19:56.203Z,93.80
2018-09-20T00:22:28.607Z,94.10
2018-09-20T00:25:01.026Z,94.10
2018-09-20T00:27:33.442Z,94.30
2018-09-20T00:30:06.098Z,94.60
2018-09-20T00:32:38.502Z,94.30
2018-09-20T00:35:10.919Z,94.30
2018-09-20T00:37:43.318Z,94.20
2018-09-20T00:40:15.722Z,94.20
2018-09-20T00:42:48.122Z,94.20
2018-09-20T00:45:20.542Z,94.40
2018-09-20T00:47:52.926Z,94.40
2018-09-20T00:50:25.346Z,94.50
2018-09-20T00:52:57.774Z,94.40
2018-09-20T00:55:30.197Z,94.50
2018-09-20T00:58:02.602Z,94.70
2018-09-20T01:00:35.019Z,94.80
2018-09-20T01:03:07.417Z,94.90
2018-09-20T01:05:39.950Z,95.00
2018-09-20T01:08:12.348Z,94.90
2018-09-20T01:10:44.778Z,95.00
2018-09-20T01:13:17.269Z,95.20
2018-09-20T01:15:49.691Z,95.40
2018-09-20T01:18:22.089Z,95.30
2018-09-20T01:20:54.499Z,95.20
2018-09-20T01:23:26.898Z,95.30
2018-09-20T01:25:59.285Z,95.40
2018-09-20T01:28:31.982Z,95.40
2018-09-20T01:31:04.451Z,95.50
2018-09-20T01:33:36.890Z,95.60
2018-09-20T01:36:09.294Z,95.90
2018-09-20T01:38:41.762Z,96.00
2018-09-20T01:41:14.161Z,96.10
2018-09-20T01:43:46.600Z,96.10
2018-09-20T01:46:18.990Z,96.30
2018-09-20T01:48:51.500Z,96.40
2018-09-20T01:51:24.183Z,96.50
2018-09-20T01:53:56.861Z,96.60
2018-09-20T01:56:29.582Z,96.70
2018-09-20T01:59:02.046Z,96.80
2018-09-20T02:01:34.445Z,96.90
2018-09-20T02:04:06.956Z,96.90
2018-09-20T02:06:39.362Z,97.10
2018-09-20T02:09:11.787Z,97.10
2018-09-20T02:11:44.214Z,97.50
2018-09-20T02:14:16.619Z,97.30
2018-09-20T02:16:49.006Z,97.50
2018-09-20T02:19:21.491Z,97.50
2018-09-20T02:21:53.881Z,97.60
2018-09-20T02:24:26.647Z,97.70
2018-09-20T02:26:59.076Z,97.90
2018-09-20T02:29:31.498Z,97.90
2018-09-20T02:32:03.935Z,98.00
2018-09-20T02:34:36.347Z,98.10
2018-09-20T02:37:08.792Z,98.20
2018-09-20T02:39:41.206Z,98.20
2018-09-20T02:42:13.646Z,98.30
2018-09-20T02:44:46.058Z,98.30
2018-09-20T02:47:18.603Z,98.50
2018-09-20T02:49:51.059Z,98.60
2018-09-20T02:52:23.483Z,98.70
2018-09-20T02:54:55.892Z,98.60
2018-09-20T02:57:28.291Z,98.80
2018-09-20T03:00:00.703Z,98.90
2018-09-20T03:02:33.146Z,99.00
2018-09-20T03:05:05.566Z,99.10
2018-09-20T03:07:37.990Z,99.30
2018-09-20T03:10:10.414Z,99.30
2018-09-20T03:12:42.853Z,99.40
2018-09-20T03:15:15.266Z,99.60
2018-09-20T03:17:47.694Z,99.70
2018-09-20T03:20:20.290Z,99.70
2018-09-20T03:22:52.751Z,99.70
2018-09-20T03:25:25.196Z,99.70
2018-09-20T03:27:57.601Z,99.60
2018-09-20T03:30:30.072Z,99.60
2018-09-20T03:33:02.806Z,99.60
2018-09-20T03:35:35.234Z,99.60
2018-09-20T03:38:07.643Z,99.60
2018-09-20T03:40:40.071Z,99.60
2018-09-20T03:43:12.474Z,99.50
2018-09-20T03:45:44.917Z,99.50
2018-09-20T03:48:17.335Z,99.50
2018-09-20T03:50:49.737Z,99.50
2018-09-20T03:53:22.153Z,99.60
2018-09-20T03:55:54.587Z,99.70
2018-09-20T03:58:27.054Z,99.60
2018-09-20T04:00:59.495Z,99.60
2018-09-20T04:03:31.881Z,99.80
2018-09-20T04:06:04.310Z,99.80
2018-09-20T04:08:36.722Z,99.90
2018-09-20T04:11:09.194Z,99.90
2018-09-20T04:13:41.603Z,99.90
2018-09-20T04:16:14.067Z,99.90
2018-09-20T04:18:46.614Z,99.90
2018-09-20T04:21:19.035Z,99.90
2018-09-20T04:23:51.706Z,99.90
2018-09-20T04:26:24.116Z,99.90
2018-09-20T04:28:56.521Z,99.90
2018-09-20T04:31:28.942Z,99.90
2018-09-20T04:34:01.383Z,99.90
2018-09-20T04:36:33.802Z,99.90
2018-09-20T04:39:07.727Z,99.90
2018-09-20T04:41:40.546Z,99.90
2018-09-20T04:44:44.115Z,99.90
2018-09-20T04:47:16.579Z,99.90
2018-09-20T04:49:49.016Z,99.90
2018-09-20T04:52:21.450Z,99.90
2018-09-20T04:54:53.903Z,99.90
2018-09-20T04:57:26.343Z,99.90
2018-09-20T04:59:58.780Z,99.90
2018-09-20T05:02:31.191Z,99.90
2018-09-20T05:05:03.597Z,99.90
2018-09-20T05:07:36.320Z,99.90
2018-09-20T05:10:08.743Z,99.90
2018-09-20T05:12:41.216Z,99.90
2018-09-20T05:15:13.639Z,99.90
2018-09-20T05:17:46.067Z,99.90
2018-09-20T05:20:18.605Z,99.90
2018-09-20T05:22:51.038Z,99.90
2018-09-20T05:25:23.437Z,99.90
2018-09-20T05:27:55.907Z,99.90
2018-09-20T05:30:28.582Z,99.90
2018-09-20T05:33:01.356Z,99.90
2018-09-20T05:35:33.919Z,99.90
2018-09-20T05:38:06.237Z,99.90
2018-09-20T05:40:38.712Z,99.90
2018-09-20T05:43:11.170Z,99.90
2018-09-20T05:45:43.614Z,99.90
2018-09-20T05:48:16.036Z,99.90
2018-09-20T05:50:48.817Z,99.90
2018-09-20T05:53:21.266Z,99.60
2018-09-20T05:55:53.712Z,99.50
2018-09-20T05:58:26.203Z,99.60
2018-09-20T06:00:58.715Z,99.20
2018-09-20T06:03:31.179Z,99.00
2018-09-20T06:06:03.608Z,99.00
2018-09-20T06:08:36.035Z,98.80
2018-09-20T06:11:08.505Z,98.60
2018-09-20T06:13:40.947Z,98.60
2018-09-20T06:16:13.358Z,97.70
2018-09-20T06:18:45.858Z,97.50
2018-09-20T06:21:18.265Z,96.60
2018-09-20T06:23:51.026Z,95.70
2018-09-20T06:26:23.489Z,94.10
2018-09-20T06:28:55.962Z,93.60
2018-09-20T06:31:28.488Z,93.00
2018-09-20T06:34:00.918Z,92.50
2018-09-20T06:36:33.355Z,92.00
2018-09-20T06:39:07.807Z,91.50
2018-09-20T06:41:40.251Z,90.10
2018-09-20T06:44:12.646Z,89.00
2018-09-20T06:46:45.075Z,87.40
2018-09-20T06:49:17.494Z,85.80
2018-09-20T06:51:49.907Z,85.40
2018-09-20T06:54:22.430Z,85.60
2018-09-20T06:56:54.869Z,84.10
2018-09-20T06:59:27.282Z,82.80
2018-09-20T07:01:59.711Z,82.40
2018-09-20T07:04:32.143Z,83.00
2018-09-20T07:07:04.940Z,84.30
2018-09-20T07:09:37.362Z,85.60
2018-09-20T07:12:09.788Z,86.50
2018-09-20T07:14:42.226Z,87.10
2018-09-20T07:17:14.705Z,87.30
2018-09-20T07:19:47.139Z,87.10
2018-09-20T07:22:19.604Z,86.60
2018-09-20T07:24:52.006Z,86.70
2018-09-20T07:27:24.418Z,85.90
2018-09-20T07:29:56.817Z,84.60
2018-09-20T07:32:29.236Z,83.50
2018-09-20T07:35:01.649Z,81.30
2018-09-20T07:37:34.093Z,78.80
2018-09-20T07:40:06.495Z,78.00
2018-09-20T07:42:38.938Z,76.80
2018-09-20T07:45:11.442Z,76.50
2018-09-20T07:47:43.858Z,76.30
2018-09-20T07:50:16.286Z,76.40
2018-09-20T07:52:48.701Z,77.40
2018-09-20T07:55:21.111Z,78.10
2018-09-20T07:57:53.518Z,79.20
2018-09-20T08:00:25.929Z,79.70
2018-09-20T08:02:58.348Z,80.40
2018-09-20T08:05:30.763Z,81.20
2018-09-20T08:08:03.190Z,81.80
2018-09-20T08:10:35.599Z,82.00
2018-09-20T08:13:08.073Z,81.90
2018-09-20T08:15:40.484Z,82.30
2018-09-20T08:18:12.902Z,82.10
2018-09-20T08:20:45.314Z,82.20
2018-09-20T08:23:17.730Z,82.70
2018-09-20T08:25:50.158Z,82.90
2018-09-20T08:28:22.585Z,83.10
2018-09-20T08:30:54.986Z,83.30
2018-09-20T08:33:27.695Z,83.40
2018-09-20T08:36:00.096Z,82.80
2018-09-20T08:38:32.514Z,82.50
2018-09-20T08:41:05.117Z,82.50
2018-09-20T08:43:37.538Z,82.70
2018-09-20T08:46:09.930Z,83.00
2018-09-20T08:48:42.339Z,83.20
2018-09-20T08:51:14.758Z,83.80
2018-09-20T08:53:47.184Z,83.80
2018-09-20T08:56:19.586Z,83.60
2018-09-20T08:58:51.998Z,83.40
2018-09-20T09:01:24.406Z,83.90
2018-09-20T09:03:56.830Z,83.50
2018-09-20T09:06:29.252Z,82.20
2018-09-20T09:09:01.664Z,82.10
2018-09-20T09:11:34.053Z,81.90
2018-09-20T09:14:06.907Z,81.40
2018-09-20T09:16:39.291Z,81.10
2018-09-20T09:19:11.692Z,80.10
2018-09-20T09:21:44.074Z,79.70
2018-09-20T09:24:16.493Z,78.80
2018-09-20T09:26:48.871Z,78.90
2018-09-20T09:29:21.270Z,77.70
2018-09-20T09:31:53.663Z,77.30
2018-09-20T09:34:26.088Z,76.90
2018-09-20T09:36:58.470Z,76.30
2018-09-20T09:39:31.135Z,75.80
2018-09-20T09:42:03.561Z,75.80
2018-09-20T09:44:35.938Z,75.80
2018-09-20T09:47:08.364Z,75.70
2018-09-20T09:49:40.766Z,75.50
2018-09-20T09:52:13.188Z,75.10
2018-09-20T09:54:45.612Z,74.90
2018-09-20T09:57:17.983Z,75.50
2018-09-20T09:59:50.416Z,75.80
2018-09-20T10:02:22.819Z,75.70
2018-09-20T10:04:55.191Z,76.40
2018-09-20T10:07:27.646Z,75.80
2018-09-20T10:10:00.039Z,75.60
2018-09-20T10:12:32.450Z,75.10
2018-09-20T10:15:04.959Z,75.10
2018-09-20T10:17:37.370Z,75.20
2018-09-20T10:20:09.794Z,75.00
2018-09-20T10:22:42.200Z,74.80
2018-09-20T10:25:14.618Z,74.80
2018-09-20T10:27:47.022Z,74.20
2018-09-20T10:30:19.468Z,74.10
2018-09-20T10:32:51.890Z,73.80
2018-09-20T10:35:24.316Z,73.50
2018-09-20T10:37:56.986Z,73.30
2018-09-20T10:40:29.411Z,72.60
2018-09-20T10:43:01.819Z,72.90
2018-09-20T10:45:34.234Z,72.60
2018-09-20T10:48:06.636Z,72.20
2018-09-20T10:50:39.052Z,72.20
2018-09-20T10:53:11.454Z,71.80
2018-09-20T10:55:43.867Z,71.20
2018-09-20T10:58:16.277Z,70.50
2018-09-20T11:00:48.697Z,71.10
2018-09-20T11:03:21.108Z,70.20
2018-09-20T11:05:53.525Z,69.20
2018-09-20T11:08:25.926Z,68.70
2018-09-20T11:10:58.344Z,68.10
2018-09-20T11:13:30.722Z,68.30
2018-09-20T11:16:03.123Z,68.00
2018-09-20T11:18:35.528Z,67.20
2018-09-20T11:21:07.922Z,66.90
2018-09-20T11:23:40.326Z,67.10
2018-09-20T11:26:12.843Z,66.80
2018-09-20T11:28:45.232Z,67.30
2018-09-20T11:31:17.642Z,66.80
2018-09-20T11:33:50.039Z,66.80
2018-09-20T11:36:22.496Z,65.50
2018-09-20T11:38:54.835Z,66.30
2018-09-20T11:41:27.251Z,66.10
2018-09-20T11:43:59.648Z,65.70
2018-09-20T11:46:32.101Z,66.00
2018-09-20T11:49:04.462Z,66.30
2018-09-20T11:51:36.870Z,66.50
2018-09-20T11:54:09.260Z,66.00
2018-09-20T11:56:41.662Z,66.60
2018-09-20T11:59:14.054Z,65.70
2018-09-20T12:01:46.525Z,65.70
2018-09-20T12:04:18.905Z,65.70
2018-09-20T12:06:51.371Z,65.70
2018-09-20T12:09:23.763Z,66.20
2018-09-20T12:11:56.162Z,66.40
2018-09-20T12:14:28.578Z,66.50
2018-09-20T12:17:00.967Z,66.00
2018-09-20T12:19:33.353Z,65.80
2018-09-20T12:22:05.982Z,65.40
2018-09-20T12:24:38.389Z,65.10
2018-09-20T12:27:10.786Z,64.90
2018-09-20T12:29:43.479Z,64.40
2018-09-20T12:32:15.920Z,63.70
2018-09-20T12:34:48.278Z,63.30
2018-09-20T12:37:20.699Z,63.70
2018-09-20T12:39:53.091Z,63.70
2018-09-20T12:42:25.515Z,63.30
2018-09-20T12:44:57.929Z,62.70
2018-09-20T12:47:30.471Z,62.50
2018-09-20T12:50:02.878Z,62.90
2018-09-20T12:52:35.275Z,62.50
2018-09-20T12:55:07.810Z,62.00
2018-09-20T12:57:40.219Z,62.00
2018-09-20T13:00:12.618Z,62.60
2018-09-20T13:02:45.059Z,62.20
2018-09-20T13:05:17.466Z,62.10
2018-09-20T13:07:49.931Z,62.10
2018-09-20T13:10:22.354Z,61.80
2018-09-20T13:12:54.806Z,62.20
2018-09-20T13:15:27.195Z,61.60
2018-09-20T13:17:59.602Z,62.10
2018-09-20T13:20:32.079Z,62.20
2018-09-20T13:23:04.431Z,61.50
2018-09-20T13:25:36.971Z,61.80
2018-09-20T13:28:09.258Z,61.40
2018-09-20T13:30:41.666Z,60.60
2018-09-20T13:33:14.072Z,59.40
2018-09-20T13:35:46.486Z,59.70
2018-09-20T13:38:18.911Z,58.80
2018-09-20T13:40:51.334Z,59.00
2018-09-20T13:43:23.756Z,58.80
2018-09-20T13:45:56.166Z,58.30
2018-09-20T13:48:28.574Z,58.80
2018-09-20T13:51:01.001Z,59.10
2018-09-20T13:53:33.422Z,58.40
2018-09-20T13:56:05.834Z,58.40
2018-09-20T13:58:38.235Z,58.20
2018-09-20T14:01:10.642Z,57.70
2018-09-20T14:03:43.075Z,57.20
2018-09-20T14:06:15.475Z,57.10
2018-09-20T14:08:47.878Z,57.10
2018-09-20T14:11:20.281Z,57.40
2018-09-20T14:13:52.691Z,57.30
2018-09-20T14:16:25.102Z,57.10
2018-09-20T14:18:57.490Z,57.20
2018-09-20T14:21:29.901Z,57.00
2018-09-20T14:24:02.334Z,56.70
2018-09-20T14:29:06.962Z,56.60
2018-09-20T14:31:39.381Z,57.30
2018-09-20T14:34:11.778Z,56.70
2018-09-20T14:36:44.237Z,56.10
2018-09-20T14:39:16.595Z,56.00
2018-09-20T14:41:49.012Z,56.30
2018-09-20T14:44:21.718Z,56.70
2018-09-20T14:46:54.109Z,56.60
2018-09-20T14:49:26.493Z,56.60
2018-09-20T14:51:58.897Z,56.70
2018-09-20T14:54:31.278Z,56.80
2018-09-20T14:57:04.052Z,57.00
2018-09-20T14:59:36.439Z,56.40
2018-09-20T15:02:08.842Z,56.10
2018-09-20T15:04:41.246Z,56.10
2018-09-20T15:07:13.668Z,55.50
2018-09-20T15:09:46.598Z,55.00
2018-09-20T15:12:19.028Z,54.90
2018-09-20T15:14:51.430Z,55.10
2018-09-20T15:17:23.846Z,55.20
2018-09-20T15:19:56.251Z,55.20
2018-09-20T15:22:28.686Z,55.20
2018-09-20T15:25:01.102Z,55.30
2018-09-20T15:27:33.656Z,54.80
2018-09-20T15:30:06.572Z,54.60
2018-09-20T15:32:39.043Z,54.50
2018-09-20T15:35:11.407Z,54.80
2018-09-20T15:37:43.831Z,54.90
2018-09-20T15:40:16.243Z,54.90
2018-09-20T15:42:48.671Z,55.10
2018-09-20T15:45:21.066Z,55.30
2018-09-20T15:47:53.483Z,55.30
2018-09-20T15:50:25.887Z,54.80
2018-09-20T15:52:58.359Z,55.20
2018-09-20T15:55:30.753Z,55.20
2018-09-20T15:58:03.183Z,55.20
2018-09-20T16:00:35.886Z,54.90
2018-09-20T16:03:08.298Z,55.00
2018-09-20T16:05:40.714Z,54.90
2018-09-20T16:08:13.123Z,54.70
2018-09-20T16:10:45.747Z,54.90
2018-09-20T16:13:18.146Z,54.60
2018-09-20T16:15:50.538Z,54.70
2018-09-20T16:18:22.951Z,54.50
2018-09-20T16:20:55.342Z,54.70
2018-09-20T16:23:27.824Z,54.70
2018-09-20T16:26:00.162Z,54.80
2018-09-20T16:28:41.466Z,54.80
2018-09-20T16:31:28.364Z,54.90
2018-09-20T16:34:14.594Z,54.80
2018-09-20T16:36:56.882Z,54.50
2018-09-20T16:39:31.622Z,54.80
2018-09-20T16:42:04.625Z,55.50
2018-09-20T16:44:37.030Z,54.80
2018-09-20T16:47:09.414Z,54.90
2018-09-20T16:49:41.805Z,55.20
2018-09-20T16:52:14.196Z,55.50
2018-09-20T16:54:46.591Z,55.70
2018-09-20T16:57:18.967Z,56.70
2018-09-20T16:59:51.345Z,56.40
2018-09-20T17:02:23.726Z,56.70
2018-09-20T17:04:56.122Z,56.70
2018-09-20T17:07:28.538Z,57.00
2018-09-20T17:10:00.963Z,57.00
2018-09-20T17:12:33.375Z,57.20
2018-09-20T17:15:06.265Z,57.60
2018-09-20T17:17:38.542Z,57.20
2018-09-20T17:20:10.962Z,57.60
2018-09-20T17:22:43.365Z,57.30
2018-09-20T17:25:15.807Z,57.80
2018-09-20T17:27:48.180Z,58.50
2018-09-20T17:30:20.605Z,58.40
2018-09-20T17:32:52.998Z,58.30
2018-09-20T17:35:25.658Z,58.40
2018-09-20T17:37:59.726Z,58.50
2018-09-20T17:40:32.866Z,58.60
2018-09-20T17:43:05.360Z,58.70
2018-09-20T17:45:37.784Z,59.00
2018-09-20T17:48:10.199Z,59.70
2018-09-20T17:50:42.598Z,59.00
2018-09-20T17:53:15.294Z,59.00
2018-09-20T17:55:48.030Z,59.00
2018-09-20T17:58:20.673Z,59.40
2018-09-20T18:00:53.078Z,59.10
2018-09-20T18:03:25.499Z,59.60
2018-09-20T18:05:57.974Z,59.60
2018-09-20T18:08:30.416Z,59.70
2018-09-20T18:11:02.814Z,60.50
2018-09-20T18:13:35.229Z,59.70
2018-09-20T18:16:08.559Z,59.80
2018-09-20T18:18:40.986Z,60.00
2018-09-20T18:21:13.394Z,59.80
2018-09-20T18:23:45.820Z,59.90
2018-09-20T18:26:18.268Z,59.90
2018-09-20T18:28:50.681Z,60.40
2018-09-20T18:31:23.093Z,60.40
2018-09-20T18:33:55.559Z,60.60
2018-09-20T18:36:27.985Z,60.50
2018-09-20T18:39:00.408Z,60.30
2018-09-20T18:41:32.814Z,60.30
2018-09-20T18:44:05.520Z,60.40
2018-09-20T18:46:37.920Z,61.30
2018-09-20T18:49:10.338Z,60.70
2018-09-20T18:51:42.752Z,61.10
2018-09-20T18:54:15.166Z,60.90
2018-09-20T18:56:47.598Z,61.40
2018-09-20T18:59:20.162Z,61.40
2018-09-20T19:01:52.567Z,62.10
2018-09-20T19:04:25.003Z,61.40
2018-09-20T19:06:57.446Z,61.30
2018-09-20T19:09:29.866Z,61.30
2018-09-20T19:12:02.286Z,61.50
2018-09-20T19:14:34.706Z,61.70
2018-09-20T19:17:07.313Z,61.80
2018-09-20T19:19:39.738Z,62.20
2018-09-20T19:22:12.134Z,62.50
2018-09-20T19:24:44.566Z,62.80
2018-09-20T19:27:16.978Z,63.00
2018-09-20T19:29:49.402Z,63.10
2018-09-20T19:32:21.817Z,63.40
2018-09-20T19:34:54.305Z,63.50
2018-09-20T19:37:26.694Z,63.70
2018-09-20T19:39:59.116Z,64.90
2018-09-20T19:42:31.513Z,65.20
2018-09-20T19:45:03.918Z,64.30
2018-09-20T19:47:36.331Z,65.40
2018-09-20T19:50:08.758Z,65.10
2018-09-20T19:52:41.161Z,65.20
2018-09-20T19:55:13.598Z,65.50
2018-09-20T19:57:46.038Z,66.00
2018-09-20T20:00:18.447Z,65.50
2018-09-20T20:02:50.858Z,65.70
2018-09-20T20:05:23.279Z,65.80
2018-09-20T20:07:55.675Z,66.50
2018-09-20T20:10:28.100Z,67.10
2018-09-20T20:13:00.470Z,67.10
2018-09-20T20:15:32.877Z,67.10
2018-09-20T20:18:05.279Z,67.00
2018-09-20T20:20:37.678Z,67.30
2018-09-20T20:23:10.071Z,67.20
2018-09-20T20:25:42.485Z,67.80
2018-09-20T20:28:14.875Z,67.60
2018-09-20T20:30:47.335Z,67.60
2018-09-20T20:33:19.754Z,67.80
2018-09-20T20:35:52.119Z,67.90
2018-09-20T20:38:24.531Z,69.10
2018-09-20T20:40:56.929Z,68.60
2018-09-20T20:43:29.315Z,68.70
2018-09-20T20:46:01.718Z,69.10
2018-09-20T20:48:34.110Z,69.80
2018-09-20T20:51:06.510Z,69.50
2018-09-20T20:53:38.898Z,69.50
2018-09-20T20:56:11.331Z,69.80
2018-09-20T20:58:43.763Z,69.80
2018-09-20T21:01:16.121Z,70.50
2018-09-20T21:03:55.309Z,70.50
2018-09-20T21:06:27.698Z,70.80
2018-09-20T21:09:00.156Z,70.90
2018-09-20T21:11:32.506Z,71.30
2018-09-20T21:14:04.900Z,71.20
2018-09-20T21:16:37.312Z,71.30
2018-09-20T21:19:09.685Z,71.90
2018-09-20T21:21:42.082Z,71.90
2018-09-20T21:24:14.474Z,71.90
2018-09-20T21:26:46.873Z,72.00
2018-09-20T21:29:19.259Z,72.50
2018-09-20T21:31:51.658Z,72.60
2018-09-20T21:34:24.036Z,72.20
2018-09-20T21:36:56.439Z,72.90
2018-09-20T21:39:28.818Z,73.10
2018-09-20T21:42:01.221Z,73.30
2018-09-20T21:44:33.614Z,73.30
2018-09-20T21:47:06.023Z,73.50
2018-09-20T21:49:38.394Z,73.60
2018-09-20T21:52:10.785Z,73.90
2018-09-20T21:54:43.158Z,74.50
2018-09-20T21:57:15.555Z,74.60
2018-09-20T21:59:47.931Z,74.70
2018-09-20T22:02:20.331Z,74.60
2018-09-20T22:04:52.707Z,74.50
2018-09-20T22:07:25.140Z,75.30
2018-09-20T22:09:57.539Z,75.10
2018-09-20T22:12:29.949Z,75.20
2018-09-20T22:15:02.351Z,75.10
2018-09-20T22:17:34.771Z,74.80
2018-09-20T22:20:07.209Z,75.00
2018-09-20T22:22:39.622Z,75.10
2018-09-20T22:25:12.022Z,75.00
2018-09-20T22:27:44.537Z,75.20
2018-09-20T22:30:16.846Z,75.20
2018-09-20T22:32:49.262Z,75.50
2018-09-20T22:35:21.781Z,75.70
2018-09-20T22:37:54.188Z,75.60
2018-09-20T22:40:26.607Z,75.90
2018-09-20T22:42:59.022Z,76.20
2018-09-20T22:45:31.422Z,77.10
2018-09-20T22:48:04.254Z,76.50
2018-09-20T22:50:36.650Z,76.80
2018-09-20T22:53:09.062Z,76.80
2018-09-20T22:55:41.475Z,77.10
2018-09-20T22:58:13.891Z,77.60
2018-09-20T23:00:46.305Z,77.30
2018-09-20T23:03:18.713Z,77.30
2018-09-20T23:05:51.131Z,77.70
2018-09-20T23:08:23.542Z,77.90
2018-09-20T23:10:55.930Z,78.00
2018-09-20T23:13:28.326Z,78.20
2018-09-20T23:16:00.706Z,78.30
2018-09-20T23:18:33.102Z,78.30
2018-09-20T23:21:05.486Z,78.60
2018-09-20T23:23:37.894Z,78.60
2018-09-20T23:26:10.270Z,78.70
2018-09-20T23:28:42.661Z,79.10
2018-09-20T23:31:15.043Z,79.30
2018-09-20T23:33:47.459Z,79.50
2018-09-20T23:36:19.886Z,79.70
2018-09-20T23:38:52.300Z,80.00
2018-09-20T23:41:24.674Z,80.00
2018-09-20T23:43:57.082Z,80.10
2018-09-20T23:46:29.467Z,80.20
2018-09-20T23:49:01.867Z,80.40
2018-09-20T23:51:34.271Z,80.20
2018-09-20T23:54:06.795Z,80.70
2018-09-20T23:56:39.242Z,80.60
2018-09-20T23:59:11.647Z,80.70
